Time;durP1;ratioP1;P1;durP2;ratioP2;P2;SDS_P1;SDS_P2;PMS_P1;PMS_P2;Temp;Humidity;BMP_temperature;BMP_pressure;BME280_temperature;BME280_humidity;BME280_pressure;Samples;Min_cycle;Max_cycle;Signal;HPM_P1;HPM_P2
2024/05/01 00:00:19;;;;;;;9.35;2.80;;;10.10;99.90;;;;;;5380986;26;19992;-71
2024/05/01 00:02:45;;;;;;;10.80;3.75;;;10.00;99.90;;;;;;5380683;26;20008;-70
2024/05/01 00:05:10;;;;;;;10.05;3.25;;;10.00;99.90;;;;;;5381702;26;20441;-70
2024/05/01 00:07:36;;;;;;;17.92;3.97;;;10.00;99.90;;;;;;5383259;26;20036;-72
2024/05/01 00:10:02;;;;;;;13.00;4.07;;;10.10;99.90;;;;;;5384447;26;20007;-68
2024/05/01 00:12:27;;;;;;;10.40;3.58;;;10.20;99.90;;;;;;5384239;26;20351;-70
2024/05/01 00:14:53;;;;;;;11.30;3.50;;;10.20;99.90;;;;;;5383088;26;20008;-66
2024/05/01 00:17:18;;;;;;;9.15;3.10;;;10.30;99.90;;;;;;5359073;26;20004;-70
2024/05/01 00:19:44;;;;;;;9.38;3.20;;;10.30;99.90;;;;;;5348309;26;20029;-71
2024/05/01 00:22:10;;;;;;;10.38;3.53;;;10.30;99.90;;;;;;5348775;26;20020;-70
2024/05/01 00:24:35;;;;;;;13.10;3.35;;;10.30;99.90;;;;;;5348695;26;20307;-71
2024/05/01 00:27:01;;;;;;;9.77;3.55;;;10.20;99.90;;;;;;5348667;26;20426;-69
2024/05/01 00:29:26;;;;;;;13.85;3.45;;;10.20;99.90;;;;;;5361560;26;20000;-70
2024/05/01 00:31:52;;;;;;;9.80;3.00;;;10.10;99.90;;;;;;5384033;26;19996;-69
2024/05/01 00:34:18;;;;;;;7.57;3.30;;;10.10;99.90;;;;;;5383259;26;20004;-70
2024/05/01 00:36:43;;;;;;;8.02;3.00;;;10.10;99.90;;;;;;5356815;26;20418;-69
2024/05/01 00:39:09;;;;;;;7.97;3.10;;;10.00;99.90;;;;;;5348966;26;20071;-70
2024/05/01 00:41:34;;;;;;;10.75;2.83;;;10.00;99.90;;;;;;5374543;26;19992;-70
2024/05/01 00:44:00;;;;;;;9.05;4.10;;;9.90;99.90;;;;;;5383396;26;20000;-69
2024/05/01 00:46:26;;;;;;;15.95;3.78;;;9.90;99.90;;;;;;5382892;26;20380;-71
2024/05/01 00:48:52;;;;;;;10.75;3.13;;;9.80;99.90;;;;;;5383179;26;20001;-68
2024/05/01 00:51:18;;;;;;;10.95;3.42;;;9.70;99.90;;;;;;5384128;26;19996;-69
2024/05/01 00:53:45;;;;;;;7.80;3.25;;;9.70;99.90;;;;;;5382862;26;20031;-68
2024/05/01 00:56:13;;;;;;;9.93;3.38;;;9.60;99.90;;;;;;5383730;26;20004;-72
2024/05/01 00:58:43;;;;;;;9.88;3.20;;;9.60;99.90;;;;;;5351985;26;20336;-69
2024/05/01 01:01:14;;;;;;;8.00;3.10;;;9.60;99.90;;;;;;5383615;26;20000;-70
2024/05/01 01:03:41;;;;;;;7.90;2.92;;;9.50;99.90;;;;;;5382721;26;20003;-69
2024/05/01 01:06:08;;;;;;;11.07;3.10;;;9.40;99.90;;;;;;5383468;26;20004;-69
2024/05/01 01:08:35;;;;;;;9.20;3.92;;;9.40;99.90;;;;;;5383109;26;20448;-71
2024/05/01 01:11:07;;;;;;;11.82;3.70;;;9.40;99.90;;;;;;5383315;26;20044;-70
2024/05/01 01:13:32;;;;;;;10.00;2.90;;;9.30;99.90;;;;;;5382547;26;19996;-71
2024/05/01 01:15:58;;;;;;;11.73;3.03;;;9.30;99.90;;;;;;5382970;26;20011;-68
2024/05/01 01:18:24;;;;;;;12.60;3.67;;;9.30;99.90;;;;;;5382393;26;20007;-73
2024/05/01 01:20:50;;;;;;;13.77;3.60;;;9.20;99.90;;;;;;5348277;26;20362;-68
2024/05/01 01:23:16;;;;;;;7.88;3.55;;;9.20;99.90;;;;;;5347878;26;20011;-68
2024/05/01 01:25:42;;;;;;;9.68;3.58;;;9.20;99.90;;;;;;5347600;26;20001;-68
2024/05/01 01:28:07;;;;;;;11.57;3.17;;;9.20;99.90;;;;;;5348166;26;20005;-70
2024/05/01 01:30:33;;;;;;;10.32;3.35;;;9.20;99.90;;;;;;5348174;26;20472;-69
2024/05/01 01:32:59;;;;;;;10.45;3.63;;;9.20;99.90;;;;;;5348052;26;19997;-70
2024/05/01 01:35:24;;;;;;;10.23;3.85;;;9.20;99.90;;;;;;5366846;26;20078;-72
2024/05/01 01:37:50;;;;;;;9.18;3.10;;;9.20;99.90;;;;;;5368867;26;20011;-71
2024/05/01 01:40:16;;;;;;;8.85;3.80;;;9.20;99.90;;;;;;5348108;26;20089;-69
2024/05/01 01:42:41;;;;;;;9.38;3.67;;;9.20;99.90;;;;;;5347835;26;20001;-68
2024/05/01 01:45:07;;;;;;;13.35;4.70;;;9.20;99.90;;;;;;5369122;26;20082;-68
2024/05/01 01:47:32;;;;;;;7.55;3.53;;;9.20;99.90;;;;;;5382918;26;20042;-68
2024/05/01 01:49:58;;;;;;;8.40;3.35;;;9.20;99.90;;;;;;5382808;26;20040;-68
2024/05/01 01:52:25;;;;;;;8.00;3.42;;;9.10;99.90;;;;;;5373383;26;20414;-70
2024/05/01 01:54:53;;;;;;;12.77;3.58;;;9.10;99.90;;;;;;5347507;26;20013;-70
2024/05/01 01:57:22;;;;;;;7.18;3.08;;;9.00;99.90;;;;;;5347441;26;20012;-71
2024/05/01 01:59:47;;;;;;;9.52;2.80;;;9.00;99.90;;;;;;5347793;26;20067;-69
2024/05/01 02:02:13;;;;;;;4.93;3.17;;;8.90;99.90;;;;;;5347803;26;20091;-68
2024/05/01 02:04:39;;;;;;;9.45;3.45;;;8.80;99.90;;;;;;5362799;26;20004;-68
2024/05/01 02:07:05;;;;;;;11.48;3.90;;;8.80;99.90;;;;;;5382391;26;20012;-68
2024/05/01 02:09:30;;;;;;;14.90;3.30;;;8.80;99.90;;;;;;5382698;26;20095;-70
2024/05/01 02:11:56;;;;;;;9.38;3.03;;;8.70;99.90;;;;;;5381866;26;20000;-68
2024/05/01 02:14:22;;;;;;;6.85;2.90;;;8.70;99.90;;;;;;5363148;26;20012;-70
2024/05/01 02:16:47;;;;;;;8.32;3.22;;;8.70;99.90;;;;;;5359121;26;19997;-67
2024/05/01 02:19:13;;;;;;;10.50;3.33;;;8.60;99.90;;;;;;5382250;26;20065;-70
2024/05/01 02:21:39;;;;;;;10.05;3.88;;;8.60;99.90;;;;;;5382095;26;20451;-72
2024/05/01 02:24:04;;;;;;;9.70;3.30;;;8.60;99.90;;;;;;5382254;26;20007;-69
2024/05/01 02:26:30;;;;;;;11.40;3.92;;;8.50;99.90;;;;;;5346944;26;20005;-70
2024/05/01 02:28:56;;;;;;;13.60;4.18;;;8.50;99.90;;;;;;5346960;26;20012;-70
2024/05/01 02:31:21;;;;;;;8.07;2.70;;;8.50;99.90;;;;;;5347218;26;20006;-71
2024/05/01 02:33:47;;;;;;;7.97;3.13;;;8.50;99.90;;;;;;5346801;26;20052;-71
2024/05/01 02:36:13;;;;;;;9.45;3.63;;;8.40;99.90;;;;;;5347319;26;19997;-70
2024/05/01 02:38:38;;;;;;;8.50;3.15;;;8.50;99.90;;;;;;5346538;26;20074;-69
2024/05/01 02:41:06;;;;;;;10.77;3.60;;;8.50;99.90;;;;;;5346726;26;19997;-70
2024/05/01 02:43:32;;;;;;;9.80;3.60;;;8.60;99.90;;;;;;5346513;26;20001;-70
2024/05/01 02:45:58;;;;;;;9.25;3.42;;;8.60;99.90;;;;;;5378036;26;20332;-71
2024/05/01 02:48:23;;;;;;;13.40;3.58;;;8.60;99.90;;;;;;5381845;26;19996;-70
2024/05/01 02:50:49;;;;;;;6.85;3.42;;;8.60;99.90;;;;;;5382113;26;20000;-69
2024/05/01 02:53:15;;;;;;;11.13;3.33;;;8.60;99.90;;;;;;5381675;26;20007;-72
2024/05/01 02:55:40;;;;;;;9.27;3.33;;;8.50;99.90;;;;;;5353194;26;20000;-71
2024/05/01 02:58:06;;;;;;;8.00;3.65;;;8.50;99.90;;;;;;5346855;26;20453;-67
2024/05/01 03:00:31;;;;;;;11.35;3.95;;;8.50;99.90;;;;;;5374327;26;20348;-71
2024/05/01 03:02:57;;;;;;;8.23;3.40;;;8.50;99.90;;;;;;5381769;26;19996;-69
2024/05/01 03:05:22;;;;;;;8.25;3.45;;;8.50;99.90;;;;;;5381599;26;20000;-72
2024/05/01 03:07:48;;;;;;;12.23;3.65;;;8.50;99.90;;;;;;5381448;26;20015;-67
2024/05/01 03:10:14;;;;;;;7.65;3.20;;;8.50;99.90;;;;;;5381770;26;20000;-70
2024/05/01 03:12:39;;;;;;;9.98;4.03;;;8.50;99.90;;;;;;5381662;26;20007;-68
2024/05/01 03:15:05;;;;;;;11.23;2.85;;;8.50;99.90;;;;;;5380059;26;20004;-70
2024/05/01 03:17:31;;;;;;;7.53;3.03;;;8.50;99.90;;;;;;5366426;26;20004;-72
2024/05/01 03:19:57;;;;;;;10.95;3.05;;;8.50;99.90;;;;;;5346398;26;20012;-71
2024/05/01 03:22:22;;;;;;;10.23;3.53;;;8.40;99.90;;;;;;5380778;26;19996;-71
2024/05/01 03:24:48;;;;;;;9.75;3.50;;;8.40;99.90;;;;;;5381069;26;20001;-71
2024/05/01 03:27:13;;;;;;;8.52;3.65;;;8.40;99.90;;;;;;5380712;26;19996;-69
2024/05/01 03:29:39;;;;;;;7.70;3.50;;;8.40;99.90;;;;;;5381274;26;20011;-70
2024/05/01 03:32:05;;;;;;;11.65;3.60;;;8.30;99.90;;;;;;5381274;26;20020;-70
2024/05/01 03:34:35;;;;;;;8.85;3.95;;;8.30;99.90;;;;;;5366055;26;20071;-70
2024/05/01 03:37:01;;;;;;;10.25;3.75;;;8.30;99.90;;;;;;5346130;26;19997;-70
2024/05/01 03:39:27;;;;;;;9.93;3.40;;;8.30;99.90;;;;;;5360399;26;20011;-69
2024/05/01 03:41:52;;;;;;;11.57;4.35;;;8.30;99.90;;;;;;5380832;26;20064;-69
2024/05/01 03:44:18;;;;;;;13.80;5.28;;;8.30;99.90;;;;;;5380904;26;20012;-69
2024/05/01 03:46:44;;;;;;;10.48;3.65;;;8.30;99.90;;;;;;5380400;26;19992;-67
2024/05/01 03:49:09;;;;;;;9.98;3.42;;;8.30;99.90;;;;;;5381109;26;19998;-68
2024/05/01 03:51:41;;;;;;;11.48;4.50;;;8.30;99.90;;;;;;5345958;26;20014;-70
2024/05/01 03:54:08;;;;;;;10.77;4.10;;;8.30;99.90;;;;;;5345281;26;19989;-70
2024/05/01 03:56:33;;;;;;;12.80;3.90;;;8.30;99.90;;;;;;5345762;26;20005;-70
2024/05/01 03:58:59;;;;;;;12.75;4.30;;;8.40;99.90;;;;;;5345554;26;20004;-71
2024/05/01 04:01:26;;;;;;;13.23;3.70;;;8.40;99.90;;;;;;5370285;26;20015;-69
2024/05/01 04:03:54;;;;;;;7.45;3.42;;;8.40;99.90;;;;;;5380274;26;20432;-71
2024/05/01 04:06:20;;;;;;;12.75;3.70;;;8.40;99.90;;;;;;5379816;26;20032;-70
2024/05/01 04:08:45;;;;;;;8.02;4.03;;;8.60;99.90;;;;;;5379874;26;20356;-70
2024/05/01 04:11:11;;;;;;;7.85;3.53;;;8.60;99.90;;;;;;5367604;26;20004;-68
2024/05/01 04:13:37;;;;;;;12.70;4.30;;;8.70;99.90;;;;;;5358232;26;20082;-70
2024/05/01 04:16:08;;;;;;;9.80;4.18;;;8.70;99.90;;;;;;5371289;26;19996;-72
2024/05/01 04:18:34;;;;;;;14.32;3.95;;;8.80;99.90;;;;;;5365679;26;20012;-70
2024/05/01 04:20:59;;;;;;;16.35;4.28;;;8.80;99.90;;;;;;5344895;26;20012;-69
2024/05/01 04:23:25;;;;;;;10.10;4.05;;;9.00;99.90;;;;;;5358604;26;20046;-65
2024/05/01 04:25:51;;;;;;;10.65;4.00;;;9.10;99.90;;;;;;5348725;26;20005;-67
2024/05/01 04:28:17;;;;;;;10.45;3.33;;;9.10;99.90;;;;;;5362758;26;20012;-70
2024/05/01 04:30:42;;;;;;;12.60;4.18;;;9.10;99.90;;;;;;5378126;26;20440;-69
2024/05/01 04:33:08;;;;;;;14.30;4.63;;;9.20;99.90;;;;;;5345400;26;20073;-70
2024/05/01 04:35:33;;;;;;;12.93;3.90;;;9.30;99.90;;;;;;5374064;26;20461;-69
2024/05/01 04:37:59;;;;;;;15.15;5.22;;;9.40;99.90;;;;;;5331887;26;20008;-69
2024/05/01 04:40:24;;;;;;;15.82;5.60;;;9.40;99.90;;;;;;5338730;26;20005;-69
2024/05/01 04:42:50;;;;;;;24.90;9.18;;;9.50;99.90;;;;;;5339829;26;20423;-70
2024/05/01 04:45:17;;;;;;;21.70;6.78;;;9.60;99.90;;;;;;5357951;26;20451;-69
2024/05/01 04:47:42;;;;;;;12.93;5.18;;;9.70;99.90;;;;;;5362637;26;20036;-72
2024/05/01 04:50:08;;;;;;;14.88;5.65;;;9.70;99.90;;;;;;5370184;26;20013;-68
2024/05/01 04:52:34;;;;;;;12.95;4.68;;;9.80;99.90;;;;;;5347544;26;19997;-71
2024/05/01 04:55:02;;;;;;;16.55;5.75;;;9.90;99.90;;;;;;5347271;26;20001;-69
2024/05/01 04:57:27;;;;;;;14.57;5.15;;;10.00;99.90;;;;;;5347636;26;19993;-68
2024/05/01 04:59:53;;;;;;;11.15;5.25;;;10.00;99.90;;;;;;5348064;26;20437;-71
2024/05/01 05:02:19;;;;;;;10.95;4.25;;;10.20;99.90;;;;;;5347852;26;20506;-71
2024/05/01 05:04:46;;;;;;;10.65;4.00;;;10.20;99.90;;;;;;5364639;26;20008;-66
2024/05/01 05:07:12;;;;;;;10.50;3.88;;;10.30;99.90;;;;;;5344225;26;20016;-73
2024/05/01 05:09:37;;;;;;;11.07;3.92;;;10.50;99.90;;;;;;5370659;26;20013;-68
2024/05/01 05:12:03;;;;;;;10.38;3.72;;;10.70;99.90;;;;;;5370271;26;19996;-70
2024/05/01 05:14:29;;;;;;;13.70;3.90;;;10.90;99.90;;;;;;5369628;26;20328;-71
2024/05/01 05:16:55;;;;;;;11.75;4.47;;;11.20;99.90;;;;;;5366153;26;20447;-68
2024/05/01 05:19:21;;;;;;;14.30;4.10;;;11.40;99.90;;;;;;5365383;26;20001;-71
2024/05/01 05:21:47;;;;;;;14.35;4.03;;;11.60;99.90;;;;;;5345383;26;20429;-70
2024/05/01 05:24:12;;;;;;;14.57;4.10;;;11.70;99.90;;;;;;5353965;26;20438;-68
2024/05/01 05:26:38;;;;;;;11.45;3.85;;;11.90;99.90;;;;;;5356245;26;20000;-69
2024/05/01 05:29:04;;;;;;;12.18;3.40;;;12.20;99.90;;;;;;5351392;26;19993;-67
2024/05/01 05:31:29;;;;;;;13.85;3.92;;;12.40;99.90;;;;;;5358693;26;20012;-72
2024/05/01 05:33:55;;;;;;;10.07;3.97;;;12.60;99.90;;;;;;5362754;26;20440;-68
2024/05/01 05:36:20;;;;;;;9.30;4.07;;;12.90;99.90;;;;;;5362296;26;20014;-68
2024/05/01 05:38:46;;;;;;;15.98;4.00;;;13.00;99.90;;;;;;5355378;26;20449;-69
2024/05/01 05:41:12;;;;;;;13.73;4.50;;;13.20;99.90;;;;;;5348111;26;20001;-71
2024/05/01 05:43:38;;;;;;;14.00;4.90;;;13.40;99.90;;;;;;5357801;26;20001;-69
2024/05/01 05:46:04;;;;;;;13.07;3.80;;;13.60;99.90;;;;;;5347380;26;20004;-71
2024/05/01 05:48:29;;;;;;;11.55;4.28;;;13.90;99.90;;;;;;5348067;26;20001;-72
2024/05/01 05:50:55;;;;;;;11.98;4.78;;;14.10;99.90;;;;;;5369850;26;20456;-69
2024/05/01 05:53:21;;;;;;;14.75;5.03;;;14.30;99.90;;;;;;5363622;26;20010;-68
2024/05/01 05:55:46;;;;;;;14.43;4.90;;;14.40;99.90;;;;;;5368314;26;20016;-69
2024/05/01 05:58:12;;;;;;;19.58;5.00;;;14.80;99.90;;;;;;5370383;26;20080;-68
2024/05/01 06:00:37;;;;;;;12.98;4.38;;;15.30;99.90;;;;;;5341828;26;20005;-68
2024/05/01 06:03:03;;;;;;;13.10;4.05;;;15.50;99.90;;;;;;5346794;26;19993;-70
2024/05/01 06:05:29;;;;;;;8.85;4.00;;;15.80;99.90;;;;;;5346435;26;19993;-71
2024/05/01 06:07:54;;;;;;;17.65;4.82;;;16.30;99.90;;;;;;5347014;26;20012;-70
2024/05/01 06:10:20;;;;;;;20.27;7.60;;;16.70;99.90;;;;;;5372100;26;20467;-70
2024/05/01 06:12:45;;;;;;;15.88;5.97;;;17.10;99.90;;;;;;5381931;26;20077;-70
2024/05/01 06:15:11;;;;;;;15.35;5.75;;;17.50;99.90;;;;;;5365421;26;19997;-70
2024/05/01 06:17:37;;;;;;;23.27;7.50;;;18.80;99.90;;;;;;5347002;26;20445;-69
2024/05/01 06:20:03;;;;;;;20.70;7.47;;;21.10;96.10;;;;;;5379329;26;20000;-69
2024/05/01 06:22:29;;;;;;;16.88;4.93;;;22.80;91.00;;;;;;5362611;26;20012;-70
2024/05/01 06:24:55;;;;;;;18.02;5.15;;;24.70;80.90;;;;;;5366963;26;20005;-69
2024/05/01 06:27:21;;;;;;;14.20;4.80;;;25.90;71.60;;;;;;5345186;26;20299;-69
2024/05/01 06:29:47;;;;;;;13.38;5.40;;;26.00;69.20;;;;;;5345299;26;20001;-70
2024/05/01 06:32:13;;;;;;;25.20;8.88;;;27.70;65.10;;;;;;5346464;26;20348;-67
2024/05/01 06:34:38;;;;;;;25.38;6.57;;;29.00;58.50;;;;;;5346394;26;20321;-70
2024/05/01 06:37:04;;;;;;;18.80;5.00;;;28.30;58.40;;;;;;5381287;26;19996;-70
2024/05/01 06:39:30;;;;;;;19.38;5.68;;;28.60;55.90;;;;;;5378579;26;20456;-70
2024/05/01 06:41:55;;;;;;;21.52;6.43;;;29.40;53.90;;;;;;5359435;26;19996;-69
2024/05/01 06:44:21;;;;;;;22.58;6.18;;;30.00;52.70;;;;;;5346641;26;20005;-70
2024/05/01 06:46:47;;;;;;;37.50;12.80;;;29.50;51.90;;;;;;5352114;26;20436;-73
2024/05/01 06:49:12;;;;;;;27.08;8.07;;;30.10;50.90;;;;;;5381323;26;20074;-68
2024/05/01 06:51:38;;;;;;;58.50;24.10;;;30.20;51.10;;;;;;5381252;26;20012;-69
2024/05/01 06:54:03;;;;;;;26.55;6.65;;;30.50;50.00;;;;;;5381166;26;19996;-67
2024/05/01 06:56:29;;;;;;;17.58;5.00;;;30.60;49.50;;;;;;5380565;26;20455;-70
2024/05/01 06:58:55;;;;;;;26.38;5.93;;;30.70;49.40;;;;;;5381086;26;19996;-68
2024/05/01 07:01:20;;;;;;;24.85;5.95;;;30.90;48.90;;;;;;5380994;26;20019;-71
2024/05/01 07:03:46;;;;;;;18.27;5.10;;;31.00;48.80;;;;;;5380818;26;20004;-71
2024/05/01 07:06:12;;;;;;;22.58;5.90;;;31.00;48.40;;;;;;5381118;26;20000;-71
2024/05/01 07:08:37;;;;;;;24.70;5.78;;;31.20;48.30;;;;;;5311716;27;20616;-69
2024/05/01 07:11:03;;;;;;;27.02;5.78;;;31.40;47.00;;;;;;5367671;26;20008;-71
2024/05/01 07:13:28;;;;;;;25.48;8.35;;;31.20;47.30;;;;;;5379723;26;20000;-70
2024/05/01 07:15:54;;;;;;;28.25;6.85;;;30.20;47.90;;;;;;5351629;26;20005;-68
2024/05/01 07:18:20;;;;;;;20.05;5.22;;;30.00;48.50;;;;;;5356427;26;20132;-67
2024/05/01 07:20:45;;;;;;;30.67;5.63;;;31.20;45.00;;;;;;5379911;26;20368;-72
2024/05/01 07:23:11;;;;;;;25.17;6.60;;;32.20;44.00;;;;;;5380821;26;20467;-71
2024/05/01 07:25:36;;;;;;;29.92;7.30;;;32.60;42.30;;;;;;5379853;26;20016;-69
2024/05/01 07:28:03;;;;;;;29.40;7.05;;;32.80;41.70;;;;;;5380706;26;19997;-70
2024/05/01 07:30:29;;;;;;;22.40;6.28;;;32.60;41.50;;;;;;5380585;26;20000;-71
2024/05/01 07:32:54;;;;;;;28.45;6.78;;;32.40;43.00;;;;;;5380005;26;20000;-72
2024/05/01 07:35:20;;;;;;;28.98;6.65;;;33.60;41.50;;;;;;5380657;26;20012;-69
2024/05/01 07:37:46;;;;;;;23.55;6.07;;;33.60;41.00;;;;;;5379740;26;20007;-70
2024/05/01 07:40:12;;;;;;;32.67;6.07;;;33.20;41.30;;;;;;5380763;26;20000;-72
2024/05/01 07:42:37;;;;;;;33.85;6.38;;;33.60;40.90;;;;;;5380694;26;20080;-70
2024/05/01 07:45:03;;;;;;;25.00;6.35;;;35.00;38.60;;;;;;5380257;26;20357;-69
2024/05/01 07:47:29;;;;;;;29.27;5.18;;;36.30;37.40;;;;;;5380264;26;20344;-69
2024/05/01 07:49:55;;;;;;;25.30;6.93;;;36.50;38.50;;;;;;5380221;26;19997;-71
2024/05/01 07:52:20;;;;;;;29.15;6.20;;;35.30;39.00;;;;;;5376184;26;20000;-69
2024/05/01 07:54:46;;;;;;;25.75;5.25;;;35.00;38.70;;;;;;5344721;26;20005;-68
2024/05/01 07:57:11;;;;;;;34.50;6.05;;;33.60;40.10;;;;;;5345497;26;20078;-70
2024/05/01 07:59:37;;;;;;;25.40;5.78;;;33.10;40.80;;;;;;5345337;26;20016;-70
2024/05/01 08:02:03;;;;;;;34.67;5.60;;;33.10;41.00;;;;;;5350984;26;20003;-69
2024/05/01 08:04:28;;;;;;;30.65;5.60;;;33.30;40.60;;;;;;5379868;26;20001;-71
2024/05/01 08:06:54;;;;;;;26.08;5.68;;;33.70;40.90;;;;;;5380082;26;20344;-71
2024/05/01 08:09:20;;;;;;;30.83;6.45;;;34.20;39.90;;;;;;5351991;26;19997;-71
2024/05/01 08:11:45;;;;;;;24.60;5.45;;;35.10;37.80;;;;;;5360831;26;20000;-70
2024/05/01 08:14:11;;;;;;;22.60;5.25;;;34.10;38.50;;;;;;5380031;26;20375;-72
2024/05/01 08:16:36;;;;;;;22.98;5.68;;;35.70;36.70;;;;;;5380004;26;19996;-70
2024/05/01 08:19:02;;;;;;;32.95;6.10;;;36.00;36.70;;;;;;5364220;26;20335;-71
2024/05/01 08:21:28;;;;;;;28.35;6.25;;;34.10;38.10;;;;;;5345004;26;20066;-68
2024/05/01 08:23:54;;;;;;;25.63;6.28;;;34.40;37.00;;;;;;5370958;26;19996;-69
2024/05/01 08:26:20;;;;;;;22.98;5.15;;;34.70;38.20;;;;;;5375910;26;20444;-72
2024/05/01 08:28:45;;;;;;;30.75;6.65;;;35.60;37.90;;;;;;5383101;26;20006;-70
2024/05/01 08:31:11;;;;;;;21.95;5.75;;;34.40;39.30;;;;;;5381596;26;19996;-68
2024/05/01 08:33:37;;;;;;;20.83;5.40;;;35.10;37.30;;;;;;5347161;26;20015;-70
2024/05/01 08:36:02;;;;;;;22.23;5.53;;;35.20;36.00;;;;;;5369612;26;20032;-68
2024/05/01 08:38:28;;;;;;;23.13;5.18;;;35.40;35.90;;;;;;5347495;26;20001;-70
2024/05/01 08:40:54;;;;;;;25.75;5.70;;;35.40;36.30;;;;;;5347111;26;20124;-71
2024/05/01 08:43:20;;;;;;;25.15;5.13;;;35.40;36.60;;;;;;5347865;26;20004;-68
2024/05/01 08:45:47;;;;;;;20.13;4.97;;;36.10;34.20;;;;;;5347924;26;20038;-71
2024/05/01 08:48:14;;;;;;;30.20;6.07;;;36.90;34.60;;;;;;5347980;26;20029;-69
2024/05/01 08:50:39;;;;;;;20.38;5.03;;;36.30;35.10;;;;;;5348436;26;19997;-68
2024/05/01 08:53:05;;;;;;;21.58;4.90;;;37.00;35.30;;;;;;5347802;26;20016;-70
2024/05/01 08:55:34;;;;;;;28.40;5.82;;;37.20;34.80;;;;;;5347363;26;20043;-70
2024/05/01 08:58:01;;;;;;;19.35;6.07;;;37.20;32.20;;;;;;5347719;26;19997;-71
2024/05/01 09:00:27;;;;;;;25.58;5.70;;;36.80;33.30;;;;;;5347651;26;19993;-72
2024/05/01 09:02:52;;;;;;;23.95;6.32;;;36.60;34.00;;;;;;5347929;26;20051;-72
2024/05/01 09:05:19;;;;;;;27.25;5.10;;;37.40;33.80;;;;;;5347572;26;20029;-68
2024/05/01 09:07:44;;;;;;;33.28;6.57;;;39.10;33.60;;;;;;5347705;26;20001;-69
2024/05/01 09:10:18;;;;;;;29.90;5.53;;;39.60;33.50;;;;;;5347499;26;20460;-70
2024/05/01 09:12:43;;;;;;;26.67;6.10;;;41.40;33.30;;;;;;5347541;26;20011;-70
2024/05/01 09:15:13;;;;;;;34.83;6.20;;;42.30;32.70;;;;;;5347799;26;20431;-71
2024/05/01 09:17:40;;;;;;;27.35;5.65;;;41.10;33.30;;;;;;5347529;26;20000;-69
2024/05/01 09:20:16;;;;;;;36.83;6.55;;;41.90;33.10;;;;;;5347483;26;20074;-70
2024/05/01 09:22:52;;;;;;;18.13;5.43;;;43.60;31.80;;;;;;5348102;26;20001;-69
2024/05/01 09:25:23;;;;;;;24.98;5.30;;;42.50;32.30;;;;;;5347529;26;19996;-72
2024/05/01 09:27:54;;;;;;;24.30;5.25;;;41.70;32.80;;;;;;5347078;26;20082;-73
2024/05/01 09:30:21;;;;;;;22.42;6.32;;;40.10;34.20;;;;;;5347516;26;20461;-72
2024/05/01 09:32:47;;;;;;;20.52;5.75;;;41.80;32.80;;;;;;5347574;26;20020;-72
2024/05/01 09:35:12;;;;;;;26.83;6.22;;;41.90;33.00;;;;;;5347349;26;20005;-70
2024/05/01 09:37:42;;;;;;;30.48;6.28;;;43.20;30.90;;;;;;5346721;26;20016;-72
2024/05/01 09:40:09;;;;;;;28.08;6.63;;;43.80;30.90;;;;;;5347709;26;20460;-71
2024/05/01 09:42:36;;;;;;;27.20;5.65;;;44.80;30.40;;;;;;5347131;26;20005;-70
2024/05/01 09:45:05;;;;;;;27.05;6.57;;;45.60;30.20;;;;;;5346957;26;20000;-73
2024/05/01 09:47:32;;;;;;;26.70;5.50;;;45.60;29.90;;;;;;5347069;26;19997;-72
2024/05/01 09:50:02;;;;;;;31.88;6.47;;;45.60;28.90;;;;;;5347948;26;20004;-72
2024/05/01 09:52:29;;;;;;;27.27;6.25;;;43.90;29.90;;;;;;5347260;26;19993;-73
2024/05/01 09:54:55;;;;;;;22.27;5.57;;;44.20;29.60;;;;;;5347037;26;20005;-72
2024/05/01 09:57:24;;;;;;;22.33;5.13;;;44.60;28.20;;;;;;5346330;26;20070;-70
2024/05/01 09:59:53;;;;;;;25.48;5.78;;;44.00;27.10;;;;;;5347614;26;20005;-71
2024/05/01 10:02:31;;;;;;;20.67;5.28;;;43.40;28.60;;;;;;5346927;26;19997;-72
2024/05/01 10:05:06;;;;;;;29.30;5.00;;;43.40;29.10;;;;;;5350739;26;19997;-70
2024/05/01 10:07:45;;;;;;;18.35;5.60;;;42.20;29.50;;;;;;5347036;26;20025;-73
2024/05/01 10:10:12;;;;;;;17.85;4.70;;;41.70;29.60;;;;;;5340498;26;20005;-72
2024/05/01 10:12:57;;;;;;;24.35;5.30;;;41.70;28.70;;;;;;5312523;27;20053;-70
2024/05/01 10:15:44;;;;;;;29.73;4.68;;;41.70;28.70;;;;;;5327860;26;20001;-69
2024/05/01 10:18:11;;;;;;;25.52;5.45;;;42.40;29.60;;;;;;5339605;26;19997;-70
2024/05/01 10:20:51;;;;;;;26.50;5.35;;;42.40;28.40;;;;;;5353885;26;20004;-68
2024/05/01 10:23:23;;;;;;;19.05;4.55;;;41.90;29.20;;;;;;5381771;26;20324;-72
2024/05/01 10:25:53;;;;;;;21.10;4.88;;;40.40;30.60;;;;;;5381907;26;20141;-70
2024/05/01 10:28:25;;;;;;;18.25;4.93;;;40.50;31.00;;;;;;5363960;26;19997;-73
2024/05/01 10:30:57;;;;;;;25.55;5.03;;;40.50;30.40;;;;;;5346480;26;19997;-69
2024/05/01 10:33:27;;;;;;;26.05;4.05;;;40.20;31.50;;;;;;5352505;26;20381;-71
2024/05/01 10:35:53;;;;;;;26.48;4.80;;;39.50;32.30;;;;;;5381254;26;20460;-72
2024/05/01 10:38:19;;;;;;;24.58;5.13;;;38.30;32.00;;;;;;5381478;26;20025;-67
2024/05/01 10:40:45;;;;;;;26.33;5.47;;;37.20;33.20;;;;;;5381466;26;20000;-70
2024/05/01 10:43:11;;;;;;;25.85;4.90;;;36.20;32.80;;;;;;5350936;26;19993;-70
2024/05/01 10:45:37;;;;;;;15.55;4.32;;;35.60;32.50;;;;;;5361402;26;20341;-70
2024/05/01 10:48:03;;;;;;;21.33;4.55;;;35.20;33.80;;;;;;5362063;26;19997;-70
2024/05/01 10:50:29;;;;;;;23.10;4.53;;;34.80;34.70;;;;;;5361821;26;20000;-72
2024/05/01 10:52:55;;;;;;;17.42;4.35;;;34.50;35.40;;;;;;5380975;26;19996;-71
2024/05/01 10:55:20;;;;;;;20.63;4.68;;;34.30;36.10;;;;;;5381007;26;20351;-74
2024/05/01 10:57:56;;;;;;;14.98;3.65;;;34.00;35.30;;;;;;5375984;26;20009;-71
2024/05/01 11:00:27;;;;;;;18.25;3.72;;;33.30;36.20;;;;;;5346509;26;20376;-71
2024/05/01 11:02:54;;;;;;;24.25;4.38;;;32.90;38.50;;;;;;5354549;26;20008;-72
2024/05/01 11:05:21;;;;;;;21.40;4.28;;;32.60;39.80;;;;;;5370731;26;20561;-73
2024/05/01 11:07:54;;;;;;;19.80;4.63;;;32.60;40.30;;;;;;5346609;26;20452;-73
2024/05/01 11:10:21;;;;;;;21.73;4.30;;;32.20;38.70;;;;;;5346248;26;20005;-73
2024/05/01 11:12:57;;;;;;;17.60;4.53;;;32.00;37.70;;;;;;5368286;26;20409;-71
2024/05/01 11:15:26;;;;;;;14.20;3.78;;;31.90;39.50;;;;;;5363279;26;20025;-71
2024/05/01 11:17:53;;;;;;;16.25;3.95;;;32.00;39.80;;;;;;5348565;26;19993;-71
2024/05/01 11:20:19;;;;;;;13.88;3.65;;;31.60;40.00;;;;;;5380994;26;20028;-74
2024/05/01 11:22:46;;;;;;;20.45;3.28;;;31.60;35.10;;;;;;5381005;26;20003;-69
2024/05/01 11:25:12;;;;;;;13.65;3.35;;;31.40;35.10;;;;;;5380283;26;20008;-72
2024/05/01 11:27:38;;;;;;;12.27;2.90;;;31.50;34.80;;;;;;5352946;26;20058;-69
2024/05/01 11:30:05;;;;;;;14.20;3.78;;;31.10;33.00;;;;;;5346037;26;20078;-73
2024/05/01 11:32:31;;;;;;;21.92;4.63;;;31.10;33.70;;;;;;5349410;26;20099;-72
2024/05/01 11:34:56;;;;;;;18.00;3.65;;;31.30;37.10;;;;;;5380281;26;20443;-69
2024/05/01 11:37:22;;;;;;;16.35;4.85;;;31.10;39.10;;;;;;5380393;26;19996;-70
2024/05/01 11:39:49;;;;;;;20.48;4.10;;;31.10;39.60;;;;;;5366638;26;20387;-71
2024/05/01 11:42:15;;;;;;;13.57;3.90;;;31.10;39.90;;;;;;5345938;26;20028;-72
2024/05/01 11:44:41;;;;;;;19.77;4.68;;;31.00;38.10;;;;;;5366393;26;20004;-69
2024/05/01 11:47:07;;;;;;;26.25;4.63;;;30.80;39.70;;;;;;5380257;26;20000;-71
2024/05/01 11:49:32;;;;;;;17.08;4.03;;;30.40;36.20;;;;;;5369319;26;20029;-74
2024/05/01 11:51:58;;;;;;;26.85;5.13;;;30.30;37.70;;;;;;5345437;26;20001;-71
2024/05/01 11:54:23;;;;;;;17.70;4.15;;;30.30;38.70;;;;;;5345346;26;20467;-70
2024/05/01 11:56:49;;;;;;;15.45;3.15;;;30.10;39.20;;;;;;5345347;26;19997;-70
2024/05/01 11:59:15;;;;;;;23.67;4.50;;;29.70;39.50;;;;;;5345707;26;19997;-74
2024/05/01 12:01:41;;;;;;;15.60;4.05;;;29.40;41.80;;;;;;5347050;26;19993;-72
2024/05/01 12:04:07;;;;;;;16.40;4.40;;;29.50;42.00;;;;;;5348288;26;19997;-69
2024/05/01 12:06:33;;;;;;;25.40;5.38;;;29.60;40.20;;;;;;5348225;26;20033;-74
2024/05/01 12:09:03;;;;;;;15.98;4.90;;;29.50;40.20;;;;;;5348653;26;20019;-70
2024/05/01 12:11:29;;;;;;;15.88;3.75;;;29.20;41.90;;;;;;5380385;26;19996;-72
2024/05/01 12:13:55;;;;;;;17.67;4.07;;;29.10;42.10;;;;;;5383337;26;20012;-70
2024/05/01 12:16:21;;;;;;;16.83;4.78;;;29.00;42.90;;;;;;5383413;26;20004;-73
2024/05/01 12:18:50;;;;;;;30.73;6.50;;;29.20;43.00;;;;;;5382077;26;19992;-72
2024/05/01 12:21:16;;;;;;;20.38;3.90;;;29.10;42.90;;;;;;5383855;26;20008;-71
2024/05/01 12:23:43;;;;;;;17.58;3.72;;;29.20;43.40;;;;;;5382390;26;20020;-72
2024/05/01 12:26:15;;;;;;;15.60;5.00;;;29.30;44.70;;;;;;5383701;26;20427;-71
2024/05/01 12:28:41;;;;;;;16.35;4.63;;;29.40;44.90;;;;;;5383141;26;20440;-71
2024/05/01 12:31:23;;;;;;;18.00;4.00;;;29.70;45.20;;;;;;5373724;26;20424;-72
2024/05/01 12:33:48;;;;;;;17.40;4.53;;;29.60;45.10;;;;;;5379684;26;20083;-70
2024/05/01 12:36:15;;;;;;;22.88;4.32;;;29.60;44.70;;;;;;5383449;26;20000;-70
2024/05/01 12:38:42;;;;;;;17.77;4.60;;;29.40;45.20;;;;;;5376196;26;20051;-72